sensor_id;sensor_type;location;lat;lon;timestamp;P1;durP1;ratioP1;P2;durP2;ratioP2
21677;SDS011;11000;50.360;7.582;2023-02-28T00:00:03;2.13;;;1.53;;
21677;SDS011;11000;50.360;7.582;2023-02-28T00:02:30;5.40;;;1.90;;
21677;SDS011;11000;50.360;7.582;2023-02-28T00:04:51;3.67;;;2.20;;
21677;SDS011;11000;50.360;7.582;2023-02-28T00:07:20;2.43;;;1.73;;
21677;SDS011;11000;50.360;7.582;2023-02-28T00:09:41;5.10;;;1.97;;
21677;SDS011;11000;50.360;7.582;2023-02-28T00:12:01;4.43;;;2.27;;
21677;SDS011;11000;50.360;7.582;2023-02-28T00:14:30;3.60;;;2.13;;
21677;SDS011;11000;50.360;7.582;2023-02-28T00:16:50;4.17;;;2.07;;
21677;SDS011;11000;50.360;7.582;2023-02-28T00:19:11;3.00;;;1.93;;
21677;SDS011;11000;50.360;7.582;2023-02-28T00:21:33;2.27;;;1.80;;
21677;SDS011;11000;50.360;7.582;2023-02-28T00:23:53;5.93;;;2.27;;
21677;SDS011;11000;50.360;7.582;2023-02-28T00:26:14;7.17;;;5.30;;
21677;SDS011;11000;50.360;7.582;2023-02-28T00:28:34;4.63;;;2.83;;
21677;SDS011;11000;50.360;7.582;2023-02-28T00:30:55;3.00;;;2.10;;
21677;SDS011;11000;50.360;7.582;2023-02-28T00:33:17;5.73;;;2.20;;
21677;SDS011;11000;50.360;7.582;2023-02-28T00:35:37;3.50;;;2.03;;
21677;SDS011;11000;50.360;7.582;2023-02-28T00:37:58;2.80;;;1.87;;
21677;SDS011;11000;50.360;7.582;2023-02-28T00:40:18;2.67;;;2.27;;
21677;SDS011;11000;50.360;7.582;2023-02-28T00:42:39;4.73;;;2.60;;
21677;SDS011;11000;50.360;7.582;2023-02-28T00:45:00;4.57;;;2.50;;
21677;SDS011;11000;50.360;7.582;2023-02-28T00:47:21;4.20;;;2.40;;
21677;SDS011;11000;50.360;7.582;2023-02-28T00:49:41;4.13;;;2.30;;
21677;SDS011;11000;50.360;7.582;2023-02-28T00:52:02;4.37;;;2.40;;
21677;SDS011;11000;50.360;7.582;2023-02-28T00:54:23;4.77;;;3.20;;
21677;SDS011;11000;50.360;7.582;2023-02-28T00:56:44;3.77;;;2.20;;
21677;SDS011;11000;50.360;7.582;2023-02-28T00:59:05;4.67;;;2.50;;
21677;SDS011;11000;50.360;7.582;2023-02-28T01:01:27;3.60;;;2.40;;
21677;SDS011;11000;50.360;7.582;2023-02-28T01:03:48;3.60;;;2.37;;
21677;SDS011;11000;50.360;7.582;2023-02-28T01:06:08;3.07;;;2.57;;
21677;SDS011;11000;50.360;7.582;2023-02-28T01:08:29;4.57;;;2.67;;
21677;SDS011;11000;50.360;7.582;2023-02-28T01:10:49;5.17;;;2.53;;
21677;SDS011;11000;50.360;7.582;2023-02-28T01:13:11;3.53;;;2.53;;
21677;SDS011;11000;50.360;7.582;2023-02-28T01:15:31;4.73;;;2.30;;
21677;SDS011;11000;50.360;7.582;2023-02-28T01:17:52;5.33;;;2.73;;
21677;SDS011;11000;50.360;7.582;2023-02-28T01:20:13;4.10;;;2.80;;
21677;SDS011;11000;50.360;7.582;2023-02-28T01:22:34;2.67;;;2.40;;
21677;SDS011;11000;50.360;7.582;2023-02-28T01:24:54;3.97;;;2.73;;
21677;SDS011;11000;50.360;7.582;2023-02-28T01:27:15;3.20;;;2.80;;
21677;SDS011;11000;50.360;7.582;2023-02-28T01:29:35;4.10;;;2.50;;
21677;SDS011;11000;50.360;7.582;2023-02-28T01:31:56;4.50;;;2.73;;
21677;SDS011;11000;50.360;7.582;2023-02-28T01:34:17;5.77;;;2.70;;
21677;SDS011;11000;50.360;7.582;2023-02-28T01:36:39;4.53;;;2.70;;
21677;SDS011;11000;50.360;7.582;2023-02-28T01:38:59;3.70;;;2.90;;
21677;SDS011;11000;50.360;7.582;2023-02-28T01:41:24;4.00;;;2.77;;
21677;SDS011;11000;50.360;7.582;2023-02-28T01:46:07;5.37;;;2.93;;
21677;SDS011;11000;50.360;7.582;2023-02-28T01:48:29;2.90;;;2.67;;
21677;SDS011;11000;50.360;7.582;2023-02-28T01:50:52;5.27;;;2.73;;
21677;SDS011;11000;50.360;7.582;2023-02-28T01:53:17;3.07;;;2.53;;
21677;SDS011;11000;50.360;7.582;2023-02-28T01:55:42;5.47;;;3.00;;
21677;SDS011;11000;50.360;7.582;2023-02-28T01:58:07;4.67;;;2.80;;
21677;SDS011;11000;50.360;7.582;2023-02-28T02:00:28;4.50;;;3.30;;
21677;SDS011;11000;50.360;7.582;2023-02-28T02:02:51;4.90;;;3.10;;
21677;SDS011;11000;50.360;7.582;2023-02-28T02:05:15;5.90;;;4.17;;
21677;SDS011;11000;50.360;7.582;2023-02-28T02:07:38;4.67;;;3.20;;
21677;SDS011;11000;50.360;7.582;2023-02-28T02:10:03;3.83;;;3.33;;
21677;SDS011;11000;50.360;7.582;2023-02-28T02:17:36;6.50;;;3.20;;
21677;SDS011;11000;50.360;7.582;2023-02-28T02:31:26;5.93;;;3.20;;
21677;SDS011;11000;50.360;7.582;2023-02-28T02:34:09;4.17;;;3.00;;
21677;SDS011;11000;50.360;7.582;2023-02-28T02:36:48;4.13;;;2.97;;
21677;SDS011;11000;50.360;7.582;2023-02-28T02:42:09;7.63;;;3.20;;
21677;SDS011;11000;50.360;7.582;2023-02-28T02:44:39;4.33;;;3.23;;
21677;SDS011;11000;50.360;7.582;2023-02-28T02:47:12;6.30;;;3.43;;
21677;SDS011;11000;50.360;7.582;2023-02-28T02:49:36;3.87;;;3.10;;
21677;SDS011;11000;50.360;7.582;2023-02-28T02:52:02;3.50;;;3.17;;
21677;SDS011;11000;50.360;7.582;2023-02-28T02:54:30;4.57;;;3.07;;
21677;SDS011;11000;50.360;7.582;2023-02-28T02:56:56;4.20;;;2.80;;
21677;SDS011;11000;50.360;7.582;2023-02-28T02:59:20;5.30;;;3.27;;
21677;SDS011;11000;50.360;7.582;2023-02-28T03:01:43;3.77;;;3.07;;
21677;SDS011;11000;50.360;7.582;2023-02-28T03:04:06;5.30;;;3.13;;
21677;SDS011;11000;50.360;7.582;2023-02-28T03:06:30;3.30;;;2.77;;
21677;SDS011;11000;50.360;7.582;2023-02-28T03:08:51;4.13;;;3.20;;
21677;SDS011;11000;50.360;7.582;2023-02-28T03:11:12;4.80;;;3.37;;
21677;SDS011;11000;50.360;7.582;2023-02-28T03:16:23;4.20;;;3.00;;
21677;SDS011;11000;50.360;7.582;2023-02-28T03:21:55;3.97;;;2.67;;
21677;SDS011;11000;50.360;7.582;2023-02-28T03:25:04;3.87;;;2.57;;
21677;SDS011;11000;50.360;7.582;2023-02-28T03:27:06;3.47;;;2.47;;
21677;SDS011;11000;50.360;7.582;2023-02-28T03:29:35;3.30;;;2.60;;
21677;SDS011;11000;50.360;7.582;2023-02-28T03:34:27;5.50;;;2.93;;
21677;SDS011;11000;50.360;7.582;2023-02-28T03:36:52;6.60;;;2.57;;
21677;SDS011;11000;50.360;7.582;2023-02-28T03:39:16;5.10;;;2.70;;
21677;SDS011;11000;50.360;7.582;2023-02-28T03:41:45;4.33;;;2.97;;
21677;SDS011;11000;50.360;7.582;2023-02-28T03:44:13;4.77;;;2.73;;
21677;SDS011;11000;50.360;7.582;2023-02-28T03:46:37;2.93;;;2.60;;
21677;SDS011;11000;50.360;7.582;2023-02-28T03:49:03;5.07;;;2.80;;
21677;SDS011;11000;50.360;7.582;2023-02-28T03:51:31;2.60;;;2.10;;
21677;SDS011;11000;50.360;7.582;2023-02-28T03:53:53;5.07;;;2.43;;
21677;SDS011;11000;50.360;7.582;2023-02-28T03:56:40;4.63;;;2.70;;
21677;SDS011;11000;50.360;7.582;2023-02-28T03:59:08;3.17;;;2.53;;
21677;SDS011;11000;50.360;7.582;2023-02-28T04:01:45;3.50;;;2.67;;
21677;SDS011;11000;50.360;7.582;2023-02-28T04:04:08;4.67;;;3.17;;
21677;SDS011;11000;50.360;7.582;2023-02-28T04:06:30;3.33;;;3.00;;
21677;SDS011;11000;50.360;7.582;2023-02-28T04:08:52;6.30;;;3.37;;
21677;SDS011;11000;50.360;7.582;2023-02-28T04:13:58;4.97;;;3.10;;
21677;SDS011;11000;50.360;7.582;2023-02-28T04:16:18;6.20;;;2.87;;
21677;SDS011;11000;50.360;7.582;2023-02-28T04:18:39;5.70;;;2.93;;
21677;SDS011;11000;50.360;7.582;2023-02-28T04:21:00;3.50;;;2.83;;
21677;SDS011;11000;50.360;7.582;2023-02-28T04:23:20;3.97;;;2.77;;
21677;SDS011;11000;50.360;7.582;2023-02-28T04:25:41;3.50;;;2.80;;
21677;SDS011;11000;50.360;7.582;2023-02-28T04:28:01;3.00;;;2.60;;
21677;SDS011;11000;50.360;7.582;2023-02-28T04:30:22;5.50;;;2.60;;
21677;SDS011;11000;50.360;7.582;2023-02-28T04:32:42;3.83;;;2.77;;
21677;SDS011;11000;50.360;7.582;2023-02-28T04:35:03;3.20;;;2.67;;
21677;SDS011;11000;50.360;7.582;2023-02-28T04:37:24;3.23;;;2.73;;
21677;SDS011;11000;50.360;7.582;2023-02-28T04:39:48;7.00;;;3.80;;
21677;SDS011;11000;50.360;7.582;2023-02-28T04:42:09;5.13;;;3.30;;
21677;SDS011;11000;50.360;7.582;2023-02-28T04:44:30;6.63;;;3.40;;
21677;SDS011;11000;50.360;7.582;2023-02-28T04:46:51;5.23;;;3.53;;
21677;SDS011;11000;50.360;7.582;2023-02-28T04:49:12;5.27;;;3.43;;
21677;SDS011;11000;50.360;7.582;2023-02-28T04:51:33;9.03;;;4.10;;
21677;SDS011;11000;50.360;7.582;2023-02-28T04:53:53;4.80;;;3.80;;
21677;SDS011;11000;50.360;7.582;2023-02-28T04:56:15;7.17;;;4.47;;
21677;SDS011;11000;50.360;7.582;2023-02-28T04:58:37;6.53;;;3.23;;
21677;SDS011;11000;50.360;7.582;2023-02-28T05:01:03;4.40;;;3.50;;
21677;SDS011;11000;50.360;7.582;2023-02-28T05:03:32;6.03;;;3.93;;
21677;SDS011;11000;50.360;7.582;2023-02-28T05:05:53;4.93;;;3.40;;
21677;SDS011;11000;50.360;7.582;2023-02-28T05:08:13;4.50;;;3.73;;
21677;SDS011;11000;50.360;7.582;2023-02-28T05:10:33;6.77;;;4.20;;
21677;SDS011;11000;50.360;7.582;2023-02-28T05:12:54;5.23;;;3.50;;
21677;SDS011;11000;50.360;7.582;2023-02-28T05:15:15;5.93;;;3.77;;
21677;SDS011;11000;50.360;7.582;2023-02-28T05:17:36;4.73;;;3.70;;
21677;SDS011;11000;50.360;7.582;2023-02-28T05:19:56;6.97;;;3.93;;
21677;SDS011;11000;50.360;7.582;2023-02-28T05:22:17;6.43;;;3.67;;
21677;SDS011;11000;50.360;7.582;2023-02-28T05:24:37;5.00;;;3.90;;
21677;SDS011;11000;50.360;7.582;2023-02-28T05:26:58;7.07;;;3.63;;
21677;SDS011;11000;50.360;7.582;2023-02-28T05:29:19;4.13;;;3.63;;
21677;SDS011;11000;50.360;7.582;2023-02-28T05:31:39;4.90;;;3.80;;
21677;SDS011;11000;50.360;7.582;2023-02-28T05:34:00;5.00;;;3.73;;
21677;SDS011;11000;50.360;7.582;2023-02-28T05:36:21;4.67;;;3.47;;
21677;SDS011;11000;50.360;7.582;2023-02-28T05:38:41;5.97;;;3.73;;
21677;SDS011;11000;50.360;7.582;2023-02-28T05:41:06;3.90;;;3.47;;
21677;SDS011;11000;50.360;7.582;2023-02-28T05:43:27;3.97;;;3.43;;
21677;SDS011;11000;50.360;7.582;2023-02-28T05:45:49;5.73;;;3.90;;
21677;SDS011;11000;50.360;7.582;2023-02-28T05:48:09;5.93;;;3.70;;
21677;SDS011;11000;50.360;7.582;2023-02-28T05:50:30;3.57;;;3.27;;
21677;SDS011;11000;50.360;7.582;2023-02-28T05:52:51;6.03;;;3.90;;
21677;SDS011;11000;50.360;7.582;2023-02-28T05:55:12;5.43;;;3.40;;
21677;SDS011;11000;50.360;7.582;2023-02-28T05:57:32;9.87;;;3.70;;
21677;SDS011;11000;50.360;7.582;2023-02-28T05:59:53;4.27;;;3.17;;
21677;SDS011;11000;50.360;7.582;2023-02-28T06:02:14;5.20;;;3.70;;
21677;SDS011;11000;50.360;7.582;2023-02-28T06:04:36;3.90;;;3.50;;
21677;SDS011;11000;50.360;7.582;2023-02-28T06:06:57;7.03;;;3.70;;
21677;SDS011;11000;50.360;7.582;2023-02-28T06:09:18;6.30;;;4.17;;
21677;SDS011;11000;50.360;7.582;2023-02-28T06:11:39;5.70;;;4.13;;
21677;SDS011;11000;50.360;7.582;2023-02-28T06:14:00;6.90;;;4.37;;
21677;SDS011;11000;50.360;7.582;2023-02-28T06:16:21;5.83;;;3.87;;
21677;SDS011;11000;50.360;7.582;2023-02-28T06:18:42;5.57;;;4.10;;
21677;SDS011;11000;50.360;7.582;2023-02-28T06:21:03;5.40;;;3.87;;
21677;SDS011;11000;50.360;7.582;2023-02-28T06:23:24;5.80;;;4.00;;
21677;SDS011;11000;50.360;7.582;2023-02-28T06:25:45;8.53;;;4.53;;
21677;SDS011;11000;50.360;7.582;2023-02-28T06:28:06;8.03;;;3.77;;
21677;SDS011;11000;50.360;7.582;2023-02-28T06:30:26;7.40;;;4.30;;
21677;SDS011;11000;50.360;7.582;2023-02-28T06:32:49;6.27;;;3.93;;
21677;SDS011;11000;50.360;7.582;2023-02-28T06:35:10;7.47;;;4.53;;
21677;SDS011;11000;50.360;7.582;2023-02-28T06:37:31;8.60;;;3.97;;
21677;SDS011;11000;50.360;7.582;2023-02-28T06:39:55;4.50;;;4.10;;
21677;SDS011;11000;50.360;7.582;2023-02-28T06:42:15;8.17;;;4.50;;
21677;SDS011;11000;50.360;7.582;2023-02-28T06:44:36;7.67;;;4.47;;
21677;SDS011;11000;50.360;7.582;2023-02-28T06:46:58;7.67;;;4.40;;
21677;SDS011;11000;50.360;7.582;2023-02-28T06:49:18;5.93;;;4.30;;
21677;SDS011;11000;50.360;7.582;2023-02-28T06:51:40;5.50;;;3.83;;
21677;SDS011;11000;50.360;7.582;2023-02-28T06:54:02;5.97;;;4.10;;
21677;SDS011;11000;50.360;7.582;2023-02-28T06:56:23;7.37;;;5.13;;
21677;SDS011;11000;50.360;7.582;2023-02-28T06:58:47;6.60;;;4.20;;
21677;SDS011;11000;50.360;7.582;2023-02-28T07:01:08;7.57;;;5.23;;
21677;SDS011;11000;50.360;7.582;2023-02-28T07:03:29;9.40;;;4.60;;
21677;SDS011;11000;50.360;7.582;2023-02-28T07:05:50;7.50;;;4.57;;
21677;SDS011;11000;50.360;7.582;2023-02-28T07:08:10;7.40;;;4.80;;
21677;SDS011;11000;50.360;7.582;2023-02-28T07:10:32;8.57;;;3.90;;
21677;SDS011;11000;50.360;7.582;2023-02-28T07:12:53;4.63;;;3.77;;
21677;SDS011;11000;50.360;7.582;2023-02-28T07:15:13;6.63;;;4.77;;
21677;SDS011;11000;50.360;7.582;2023-02-28T07:17:34;4.80;;;4.30;;
21677;SDS011;11000;50.360;7.582;2023-02-28T07:19:55;5.97;;;4.07;;
21677;SDS011;11000;50.360;7.582;2023-02-28T07:22:16;7.53;;;3.93;;
21677;SDS011;11000;50.360;7.582;2023-02-28T07:24:36;7.53;;;4.03;;
21677;SDS011;11000;50.360;7.582;2023-02-28T07:26:58;8.47;;;3.83;;
21677;SDS011;11000;50.360;7.582;2023-02-28T07:29:19;6.37;;;3.77;;
21677;SDS011;11000;50.360;7.582;2023-02-28T07:31:39;9.57;;;3.60;;
21677;SDS011;11000;50.360;7.582;2023-02-28T07:34:00;5.37;;;3.13;;
21677;SDS011;11000;50.360;7.582;2023-02-28T07:36:20;6.10;;;3.67;;
21677;SDS011;11000;50.360;7.582;2023-02-28T07:38:41;4.50;;;3.40;;
21677;SDS011;11000;50.360;7.582;2023-02-28T07:41:03;5.17;;;3.43;;
21677;SDS011;11000;50.360;7.582;2023-02-28T07:43:24;5.20;;;3.43;;
21677;SDS011;11000;50.360;7.582;2023-02-28T07:45:44;3.23;;;2.90;;
21677;SDS011;11000;50.360;7.582;2023-02-28T07:48:05;4.50;;;3.53;;
21677;SDS011;11000;50.360;7.582;2023-02-28T07:50:26;6.70;;;3.33;;
21677;SDS011;11000;50.360;7.582;2023-02-28T07:52:50;4.43;;;2.80;;
21677;SDS011;11000;50.360;7.582;2023-02-28T07:55:11;5.33;;;3.53;;
21677;SDS011;11000;50.360;7.582;2023-02-28T07:57:31;5.33;;;3.63;;
21677;SDS011;11000;50.360;7.582;2023-02-28T07:59:52;5.10;;;3.50;;
21677;SDS011;11000;50.360;7.582;2023-02-28T08:02:16;4.10;;;3.40;;
21677;SDS011;11000;50.360;7.582;2023-02-28T08:04:38;5.07;;;3.63;;
21677;SDS011;11000;50.360;7.582;2023-02-28T08:06:58;3.47;;;3.13;;
21677;SDS011;11000;50.360;7.582;2023-02-28T08:09:19;4.30;;;3.20;;
21677;SDS011;11000;50.360;7.582;2023-02-28T08:11:39;5.23;;;3.50;;
21677;SDS011;11000;50.360;7.582;2023-02-28T08:14:00;8.27;;;3.50;;
21677;SDS011;11000;50.360;7.582;2023-02-28T08:16:20;6.50;;;3.47;;
21677;SDS011;11000;50.360;7.582;2023-02-28T08:18:42;7.33;;;3.47;;
21677;SDS011;11000;50.360;7.582;2023-02-28T08:21:06;5.50;;;3.37;;
21677;SDS011;11000;50.360;7.582;2023-02-28T08:23:27;3.80;;;2.70;;
21677;SDS011;11000;50.360;7.582;2023-02-28T08:25:54;3.97;;;3.20;;
21677;SDS011;11000;50.360;7.582;2023-02-28T08:28:16;3.20;;;2.90;;
21677;SDS011;11000;50.360;7.582;2023-02-28T08:30:37;5.77;;;2.77;;
21677;SDS011;11000;50.360;7.582;2023-02-28T08:33:00;4.70;;;2.93;;
21677;SDS011;11000;50.360;7.582;2023-02-28T08:35:21;7.23;;;3.10;;
21677;SDS011;11000;50.360;7.582;2023-02-28T08:37:42;3.07;;;2.60;;
21677;SDS011;11000;50.360;7.582;2023-02-28T08:40:03;3.80;;;2.63;;
21677;SDS011;11000;50.360;7.582;2023-02-28T08:42:24;6.10;;;3.00;;
21677;SDS011;11000;50.360;7.582;2023-02-28T08:44:44;8.20;;;3.07;;
21677;SDS011;11000;50.360;7.582;2023-02-28T08:47:05;3.23;;;2.50;;
21677;SDS011;11000;50.360;7.582;2023-02-28T08:49:25;7.03;;;3.07;;
21677;SDS011;11000;50.360;7.582;2023-02-28T08:51:46;4.50;;;2.57;;
21677;SDS011;11000;50.360;7.582;2023-02-28T08:54:07;3.80;;;2.50;;
21677;SDS011;11000;50.360;7.582;2023-02-28T08:56:28;2.77;;;2.40;;
21677;SDS011;11000;50.360;7.582;2023-02-28T08:58:49;2.63;;;2.43;;
21677;SDS011;11000;50.360;7.582;2023-02-28T09:01:17;3.87;;;2.90;;
21677;SDS011;11000;50.360;7.582;2023-02-28T09:03:39;3.33;;;2.40;;
21677;SDS011;11000;50.360;7.582;2023-02-28T09:06:01;4.17;;;2.60;;
21677;SDS011;11000;50.360;7.582;2023-02-28T09:08:23;6.03;;;3.23;;
21677;SDS011;11000;50.360;7.582;2023-02-28T09:10:46;3.67;;;2.90;;
21677;SDS011;11000;50.360;7.582;2023-02-28T09:13:07;3.83;;;2.37;;
21677;SDS011;11000;50.360;7.582;2023-02-28T09:15:27;3.27;;;2.40;;
21677;SDS011;11000;50.360;7.582;2023-02-28T09:17:48;3.67;;;2.57;;
21677;SDS011;11000;50.360;7.582;2023-02-28T09:20:09;3.73;;;2.63;;
21677;SDS011;11000;50.360;7.582;2023-02-28T09:22:30;4.27;;;2.50;;
21677;SDS011;11000;50.360;7.582;2023-02-28T09:24:50;5.53;;;3.13;;
21677;SDS011;11000;50.360;7.582;2023-02-28T09:27:11;5.37;;;3.03;;
21677;SDS011;11000;50.360;7.582;2023-02-28T09:29:32;3.13;;;2.37;;
21677;SDS011;11000;50.360;7.582;2023-02-28T09:31:54;4.97;;;2.83;;
21677;SDS011;11000;50.360;7.582;2023-02-28T09:34:16;6.20;;;3.10;;
21677;SDS011;11000;50.360;7.582;2023-02-28T09:36:37;4.70;;;3.10;;
21677;SDS011;11000;50.360;7.582;2023-02-28T09:38:57;3.70;;;2.70;;
21677;SDS011;11000;50.360;7.582;2023-02-28T09:41:22;8.53;;;3.87;;
21677;SDS011;11000;50.360;7.582;2023-02-28T09:43:46;6.17;;;2.70;;
21677;SDS011;11000;50.360;7.582;2023-02-28T09:49:06;2.93;;;2.43;;
21677;SDS011;11000;50.360;7.582;2023-02-28T09:54:18;4.03;;;2.70;;
21677;SDS011;11000;50.360;7.582;2023-02-28T09:56:44;3.63;;;2.20;;
21677;SDS011;11000;50.360;7.582;2023-02-28T10:02:03;2.80;;;2.27;;
21677;SDS011;11000;50.360;7.582;2023-02-28T10:07:17;5.77;;;2.70;;
21677;SDS011;11000;50.360;7.582;2023-02-28T10:09:57;3.80;;;2.40;;
21677;SDS011;11000;50.360;7.582;2023-02-28T10:12:22;3.83;;;2.77;;
21677;SDS011;11000;50.360;7.582;2023-02-28T10:14:46;5.93;;;2.73;;
21677;SDS011;11000;50.360;7.582;2023-02-28T10:17:12;5.13;;;2.70;;
21677;SDS011;11000;50.360;7.582;2023-02-28T10:24:42;3.90;;;2.93;;
21677;SDS011;11000;50.360;7.582;2023-02-28T10:27:21;3.63;;;2.50;;
21677;SDS011;11000;50.360;7.582;2023-02-28T10:29:47;4.43;;;3.00;;
21677;SDS011;11000;50.360;7.582;2023-02-28T10:32:11;5.90;;;3.10;;
21677;SDS011;11000;50.360;7.582;2023-02-28T10:34:36;8.60;;;2.83;;
21677;SDS011;11000;50.360;7.582;2023-02-28T10:36:57;6.87;;;3.57;;
21677;SDS011;11000;50.360;7.582;2023-02-28T10:39:34;3.40;;;2.07;;
21677;SDS011;11000;50.360;7.582;2023-02-28T10:41:57;3.93;;;2.97;;
21677;SDS011;11000;50.360;7.582;2023-02-28T10:44:22;6.87;;;2.97;;
21677;SDS011;11000;50.360;7.582;2023-02-28T10:46:43;2.63;;;2.30;;
21677;SDS011;11000;50.360;7.582;2023-02-28T10:49:06;3.10;;;2.80;;
21677;SDS011;11000;50.360;7.582;2023-02-28T10:51:39;4.87;;;3.20;;
21677;SDS011;11000;50.360;7.582;2023-02-28T10:54:01;2.87;;;2.30;;
21677;SDS011;11000;50.360;7.582;2023-02-28T10:56:23;5.07;;;3.30;;
21677;SDS011;11000;50.360;7.582;2023-02-28T10:58:56;3.30;;;2.77;;
21677;SDS011;11000;50.360;7.582;2023-02-28T11:03:40;3.10;;;2.40;;
21677;SDS011;11000;50.360;7.582;2023-02-28T11:06:05;3.40;;;2.57;;
21677;SDS011;11000;50.360;7.582;2023-02-28T11:08:28;3.93;;;2.73;;
21677;SDS011;11000;50.360;7.582;2023-02-28T11:10:55;5.37;;;3.33;;
21677;SDS011;11000;50.360;7.582;2023-02-28T11:13:20;3.57;;;2.57;;
21677;SDS011;11000;50.360;7.582;2023-02-28T11:15:49;6.93;;;3.20;;
21677;SDS011;11000;50.360;7.582;2023-02-28T11:20:52;4.37;;;2.73;;
21677;SDS011;11000;50.360;7.582;2023-02-28T11:23:15;3.63;;;2.73;;
21677;SDS011;11000;50.360;7.582;2023-02-28T11:25:38;3.03;;;2.63;;
21677;SDS011;11000;50.360;7.582;2023-02-28T11:28:03;3.63;;;2.80;;
21677;SDS011;11000;50.360;7.582;2023-02-28T11:30:31;3.30;;;2.77;;
21677;SDS011;11000;50.360;7.582;2023-02-28T11:32:54;2.60;;;2.40;;
21677;SDS011;11000;50.360;7.582;2023-02-28T11:38:09;4.60;;;3.00;;
21677;SDS011;11000;50.360;7.582;2023-02-28T11:48:27;4.00;;;2.80;;
21677;SDS011;11000;50.360;7.582;2023-02-28T11:53:50;6.33;;;3.40;;
21677;SDS011;11000;50.360;7.582;2023-02-28T11:56:23;3.90;;;2.80;;
21677;SDS011;11000;50.360;7.582;2023-02-28T12:04:10;4.33;;;3.43;;
21677;SDS011;11000;50.360;7.582;2023-02-28T12:28:09;5.63;;;2.97;;
21677;SDS011;11000;50.360;7.582;2023-02-28T12:30:33;3.63;;;2.60;;
21677;SDS011;11000;50.360;7.582;2023-02-28T12:33:04;3.10;;;2.80;;
21677;SDS011;11000;50.360;7.582;2023-02-28T12:35:33;5.67;;;3.10;;
21677;SDS011;11000;50.360;7.582;2023-02-28T12:38:02;3.03;;;2.73;;
21677;SDS011;11000;50.360;7.582;2023-02-28T12:40:34;3.10;;;2.80;;
21677;SDS011;11000;50.360;7.582;2023-02-28T12:43:09;3.50;;;2.97;;
21677;SDS011;11000;50.360;7.582;2023-02-28T12:48:09;4.90;;;3.53;;
21677;SDS011;11000;50.360;7.582;2023-02-28T12:50:34;3.77;;;2.80;;
21677;SDS011;11000;50.360;7.582;2023-02-28T13:09:12;3.67;;;2.97;;
21677;SDS011;11000;50.360;7.582;2023-02-28T13:11:39;4.43;;;3.50;;
21677;SDS011;11000;50.360;7.582;2023-02-28T13:19:20;4.70;;;3.40;;
21677;SDS011;11000;50.360;7.582;2023-02-28T13:21:43;3.60;;;2.93;;
21677;SDS011;11000;50.360;7.582;2023-02-28T13:24:04;4.03;;;3.27;;
21677;SDS011;11000;50.360;7.582;2023-02-28T13:31:31;3.60;;;3.27;;
21677;SDS011;11000;50.360;7.582;2023-02-28T13:38:46;7.07;;;3.57;;
21677;SDS011;11000;50.360;7.582;2023-02-28T13:44:00;4.07;;;3.53;;
21677;SDS011;11000;50.360;7.582;2023-02-28T13:46:26;4.87;;;3.50;;
21677;SDS011;11000;50.360;7.582;2023-02-28T13:48:47;4.57;;;3.43;;
21677;SDS011;11000;50.360;7.582;2023-02-28T13:54:04;4.03;;;3.30;;
21677;SDS011;11000;50.360;7.582;2023-02-28T13:57:04;4.23;;;3.37;;
21677;SDS011;11000;50.360;7.582;2023-02-28T13:59:28;3.87;;;3.23;;
21677;SDS011;11000;50.360;7.582;2023-02-28T14:02:09;3.23;;;2.93;;
21677;SDS011;11000;50.360;7.582;2023-02-28T14:07:22;4.13;;;3.70;;
21677;SDS011;11000;50.360;7.582;2023-02-28T14:09:58;5.90;;;3.70;;
21677;SDS011;11000;50.360;7.582;2023-02-28T14:18:00;4.37;;;3.37;;
21677;SDS011;11000;50.360;7.582;2023-02-28T14:20:24;4.13;;;3.40;;
21677;SDS011;11000;50.360;7.582;2023-02-28T14:22:56;5.80;;;3.87;;
21677;SDS011;11000;50.360;7.582;2023-02-28T14:25:44;6.43;;;4.10;;
21677;SDS011;11000;50.360;7.582;2023-02-28T14:31:15;3.80;;;3.40;;
21677;SDS011;11000;50.360;7.582;2023-02-28T14:33:46;3.93;;;3.50;;
21677;SDS011;11000;50.360;7.582;2023-02-28T14:36:31;5.57;;;4.17;;
21677;SDS011;11000;50.360;7.582;2023-02-28T14:38:56;3.90;;;3.30;;
21677;SDS011;11000;50.360;7.582;2023-02-28T14:41:20;5.43;;;3.90;;
21677;SDS011;11000;50.360;7.582;2023-02-28T14:46:45;4.73;;;3.97;;
21677;SDS011;11000;50.360;7.582;2023-02-28T14:49:13;4.40;;;3.40;;
21677;SDS011;11000;50.360;7.582;2023-02-28T14:51:45;4.50;;;4.10;;
21677;SDS011;11000;50.360;7.582;2023-02-28T14:54:12;5.03;;;3.77;;
21677;SDS011;11000;50.360;7.582;2023-02-28T14:56:43;4.97;;;4.00;;
21677;SDS011;11000;50.360;7.582;2023-02-28T14:59:26;5.77;;;4.07;;
21677;SDS011;11000;50.360;7.582;2023-02-28T15:01:49;7.03;;;4.03;;
21677;SDS011;11000;50.360;7.582;2023-02-28T15:04:12;4.10;;;3.47;;
21677;SDS011;11000;50.360;7.582;2023-02-28T15:06:42;6.17;;;4.10;;
21677;SDS011;11000;50.360;7.582;2023-02-28T15:09:11;4.77;;;3.80;;
21677;SDS011;11000;50.360;7.582;2023-02-28T15:11:35;6.70;;;4.20;;
21677;SDS011;11000;50.360;7.582;2023-02-28T15:13:58;5.03;;;3.53;;
21677;SDS011;11000;50.360;7.582;2023-02-28T15:16:25;4.60;;;3.70;;
21677;SDS011;11000;50.360;7.582;2023-02-28T15:21:47;3.63;;;3.33;;
21677;SDS011;11000;50.360;7.582;2023-02-28T15:24:13;5.57;;;3.63;;
21677;SDS011;11000;50.360;7.582;2023-02-28T15:26:46;5.43;;;3.83;;
21677;SDS011;11000;50.360;7.582;2023-02-28T15:29:14;4.10;;;3.40;;
21677;SDS011;11000;50.360;7.582;2023-02-28T15:31:40;4.80;;;4.03;;
21677;SDS011;11000;50.360;7.582;2023-02-28T15:34:05;3.77;;;3.47;;
21677;SDS011;11000;50.360;7.582;2023-02-28T15:36:28;4.10;;;3.63;;
21677;SDS011;11000;50.360;7.582;2023-02-28T15:38:50;4.90;;;3.87;;
21677;SDS011;11000;50.360;7.582;2023-02-28T15:41:25;5.67;;;4.07;;
21677;SDS011;11000;50.360;7.582;2023-02-28T15:44:13;6.30;;;3.73;;
21677;SDS011;11000;50.360;7.582;2023-02-28T15:47:12;4.60;;;3.87;;
21677;SDS011;11000;50.360;7.582;2023-02-28T15:49:45;4.33;;;3.60;;
21677;SDS011;11000;50.360;7.582;2023-02-28T15:52:34;6.07;;;3.97;;
21677;SDS011;11000;50.360;7.582;2023-02-28T15:55:22;4.90;;;3.77;;
21677;SDS011;11000;50.360;7.582;2023-02-28T15:57:50;6.23;;;4.07;;
21677;SDS011;11000;50.360;7.582;2023-02-28T16:00:15;7.20;;;4.17;;
21677;SDS011;11000;50.360;7.582;2023-02-28T16:02:39;6.57;;;3.90;;
21677;SDS011;11000;50.360;7.582;2023-02-28T16:07:30;6.13;;;4.00;;
21677;SDS011;11000;50.360;7.582;2023-02-28T16:09:52;5.53;;;3.50;;
21677;SDS011;11000;50.360;7.582;2023-02-28T16:12:13;4.80;;;3.80;;
21677;SDS011;11000;50.360;7.582;2023-02-28T16:14:35;6.17;;;3.70;;
21677;SDS011;11000;50.360;7.582;2023-02-28T16:17:05;4.53;;;3.97;;
21677;SDS011;11000;50.360;7.582;2023-02-28T16:19:34;7.37;;;4.13;;
21677;SDS011;11000;50.360;7.582;2023-02-28T16:21:55;6.00;;;3.77;;
21677;SDS011;11000;50.360;7.582;2023-02-28T16:24:15;4.87;;;3.80;;
21677;SDS011;11000;50.360;7.582;2023-02-28T16:26:36;5.73;;;3.47;;
21677;SDS011;11000;50.360;7.582;2023-02-28T16:29:00;4.63;;;3.77;;
21677;SDS011;11000;50.360;7.582;2023-02-28T16:31:22;4.83;;;3.80;;
21677;SDS011;11000;50.360;7.582;2023-02-28T16:33:44;3.70;;;3.30;;
21677;SDS011;11000;50.360;7.582;2023-02-28T16:36:05;8.43;;;3.93;;
21677;SDS011;11000;50.360;7.582;2023-02-28T16:38:32;4.43;;;3.57;;
21677;SDS011;11000;50.360;7.582;2023-02-28T16:40:55;4.37;;;3.97;;
21677;SDS011;11000;50.360;7.582;2023-02-28T16:43:18;4.43;;;3.70;;
21677;SDS011;11000;50.360;7.582;2023-02-28T16:45:44;4.67;;;4.17;;
21677;SDS011;11000;50.360;7.582;2023-02-28T16:48:07;4.90;;;3.83;;
21677;SDS011;11000;50.360;7.582;2023-02-28T16:50:32;5.10;;;3.77;;
21677;SDS011;11000;50.360;7.582;2023-02-28T16:52:53;5.43;;;4.07;;
21677;SDS011;11000;50.360;7.582;2023-02-28T16:55:14;5.97;;;3.97;;
21677;SDS011;11000;50.360;7.582;2023-02-28T16:57:35;5.00;;;3.90;;
21677;SDS011;11000;50.360;7.582;2023-02-28T16:59:55;7.37;;;3.97;;
21677;SDS011;11000;50.360;7.582;2023-02-28T17:02:16;4.53;;;3.43;;